sensor_id;sensor_type;location;lat;lon;timestamp;temperature;humidity
13205;DHT22;6667;52.634;9.226;2023-05-07T00:01:59;10.20;99.90
13205;DHT22;6667;52.634;9.226;2023-05-07T00:04:29;10.20;99.90
13205;DHT22;6667;52.634;9.226;2023-05-07T00:07:05;10.20;99.90
13205;DHT22;6667;52.634;9.226;2023-05-07T00:09:32;10.10;99.90
13205;DHT22;6667;52.634;9.226;2023-05-07T00:12:02;10.10;99.90
13205;DHT22;6667;52.634;9.226;2023-05-07T00:14:30;10.10;99.90
13205;DHT22;6667;52.634;9.226;2023-05-07T00:16:58;10.00;99.90
13205;DHT22;6667;52.634;9.226;2023-05-07T00:19:27;10.10;99.90
13205;DHT22;6667;52.634;9.226;2023-05-07T00:21:54;10.10;99.90
13205;DHT22;6667;52.634;9.226;2023-05-07T00:24:22;10.10;99.90
13205;DHT22;6667;52.634;9.226;2023-05-07T00:26:50;10.00;99.90
13205;DHT22;6667;52.634;9.226;2023-05-07T00:29:18;10.00;99.90
13205;DHT22;6667;52.634;9.226;2023-05-07T00:31:45;10.00;99.90
13205;DHT22;6667;52.634;9.226;2023-05-07T00:34:13;10.00;99.90
13205;DHT22;6667;52.634;9.226;2023-05-07T00:36:40;10.00;99.90
13205;DHT22;6667;52.634;9.226;2023-05-07T00:39:53;10.00;99.90
13205;DHT22;6667;52.634;9.226;2023-05-07T00:42:21;10.00;99.90
13205;DHT22;6667;52.634;9.226;2023-05-07T00:44:55;10.00;99.90
13205;DHT22;6667;52.634;9.226;2023-05-07T00:47:36;10.00;99.90
13205;DHT22;6667;52.634;9.226;2023-05-07T00:50:23;10.00;99.90
13205;DHT22;6667;52.634;9.226;2023-05-07T00:52:53;10.00;99.90
13205;DHT22;6667;52.634;9.226;2023-05-07T00:55:24;9.90;99.90
13205;DHT22;6667;52.634;9.226;2023-05-07T00:57:54;9.90;99.90
13205;DHT22;6667;52.634;9.226;2023-05-07T01:00:23;9.90;99.90
13205;DHT22;6667;52.634;9.226;2023-05-07T01:03:24;10.00;99.90
13205;DHT22;6667;52.634;9.226;2023-05-07T01:05:42;10.00;99.90
13205;DHT22;6667;52.634;9.226;2023-05-07T01:11:26;9.90;99.90
13205;DHT22;6667;52.634;9.226;2023-05-07T01:13:54;9.90;99.90
13205;DHT22;6667;52.634;9.226;2023-05-07T01:16:22;9.80;99.90
13205;DHT22;6667;52.634;9.226;2023-05-07T01:19:08;9.80;99.90
13205;DHT22;6667;52.634;9.226;2023-05-07T01:28:18;9.90;99.90
13205;DHT22;6667;52.634;9.226;2023-05-07T01:30:53;9.80;99.90
13205;DHT22;6667;52.634;9.226;2023-05-07T01:33:24;9.80;99.90
13205;DHT22;6667;52.634;9.226;2023-05-07T01:35:56;9.80;99.90
13205;DHT22;6667;52.634;9.226;2023-05-07T01:38:24;9.80;99.90
13205;DHT22;6667;52.634;9.226;2023-05-07T01:40:51;9.80;99.90
13205;DHT22;6667;52.634;9.226;2023-05-07T01:43:20;9.80;99.90
13205;DHT22;6667;52.634;9.226;2023-05-07T01:45:48;9.80;99.90
13205;DHT22;6667;52.634;9.226;2023-05-07T01:48:16;9.80;99.90
13205;DHT22;6667;52.634;9.226;2023-05-07T01:50:48;9.70;99.90
13205;DHT22;6667;52.634;9.226;2023-05-07T01:53:15;9.70;99.90
13205;DHT22;6667;52.634;9.226;2023-05-07T01:55:42;9.70;99.90
13205;DHT22;6667;52.634;9.226;2023-05-07T01:58:10;9.70;99.90
13205;DHT22;6667;52.634;9.226;2023-05-07T02:00:39;9.70;99.90
13205;DHT22;6667;52.634;9.226;2023-05-07T02:03:06;9.70;99.90
13205;DHT22;6667;52.634;9.226;2023-05-07T02:05:33;9.60;99.90
13205;DHT22;6667;52.634;9.226;2023-05-07T02:08:00;9.60;99.90
13205;DHT22;6667;52.634;9.226;2023-05-07T02:10:33;9.70;99.90
13205;DHT22;6667;52.634;9.226;2023-05-07T02:13:01;9.60;99.90
13205;DHT22;6667;52.634;9.226;2023-05-07T02:15:28;9.60;99.90
13205;DHT22;6667;52.634;9.226;2023-05-07T02:18:01;9.70;99.90
13205;DHT22;6667;52.634;9.226;2023-05-07T02:20:32;9.60;99.90
13205;DHT22;6667;52.634;9.226;2023-05-07T02:23:16;9.60;99.90
13205;DHT22;6667;52.634;9.226;2023-05-07T02:25:44;9.60;99.90
13205;DHT22;6667;52.634;9.226;2023-05-07T02:28:20;9.60;99.90
13205;DHT22;6667;52.634;9.226;2023-05-07T02:30:47;9.60;99.90
13205;DHT22;6667;52.634;9.226;2023-05-07T02:33:16;9.60;99.90
13205;DHT22;6667;52.634;9.226;2023-05-07T02:35:43;9.60;99.90
13205;DHT22;6667;52.634;9.226;2023-05-07T02:38:10;9.60;99.90
13205;DHT22;6667;52.634;9.226;2023-05-07T02:40:37;9.60;99.90
13205;DHT22;6667;52.634;9.226;2023-05-07T02:43:14;9.60;99.90
13205;DHT22;6667;52.634;9.226;2023-05-07T02:45:59;9.60;99.90
13205;DHT22;6667;52.634;9.226;2023-05-07T02:48:31;9.60;99.90
13205;DHT22;6667;52.634;9.226;2023-05-07T02:50:58;9.60;99.90
13205;DHT22;6667;52.634;9.226;2023-05-07T02:53:26;9.60;99.90
13205;DHT22;6667;52.634;9.226;2023-05-07T02:55:53;9.60;99.90
13205;DHT22;6667;52.634;9.226;2023-05-07T02:58:20;9.60;99.90
13205;DHT22;6667;52.634;9.226;2023-05-07T03:00:47;9.60;99.90
13205;DHT22;6667;52.634;9.226;2023-05-07T03:03:14;9.60;99.90
13205;DHT22;6667;52.634;9.226;2023-05-07T03:05:43;9.60;99.90
13205;DHT22;6667;52.634;9.226;2023-05-07T03:08:35;9.60;99.90
13205;DHT22;6667;52.634;9.226;2023-05-07T03:11:05;9.60;99.90
13205;DHT22;6667;52.634;9.226;2023-05-07T03:13:32;9.60;99.90
13205;DHT22;6667;52.634;9.226;2023-05-07T03:16:00;9.50;99.90
13205;DHT22;6667;52.634;9.226;2023-05-07T03:18:33;9.60;99.90
13205;DHT22;6667;52.634;9.226;2023-05-07T03:21:01;9.50;99.90
13205;DHT22;6667;52.634;9.226;2023-05-07T03:23:29;9.60;99.90
13205;DHT22;6667;52.634;9.226;2023-05-07T03:25:56;9.60;99.90
13205;DHT22;6667;52.634;9.226;2023-05-07T03:31:47;9.50;99.90
13205;DHT22;6667;52.634;9.226;2023-05-07T03:34:14;9.60;99.90
13205;DHT22;6667;52.634;9.226;2023-05-07T03:36:44;9.60;99.90
13205;DHT22;6667;52.634;9.226;2023-05-07T03:39:11;9.50;99.90
13205;DHT22;6667;52.634;9.226;2023-05-07T03:41:38;9.50;99.90
13205;DHT22;6667;52.634;9.226;2023-05-07T03:44:05;9.50;99.90
13205;DHT22;6667;52.634;9.226;2023-05-07T03:46:33;9.50;99.90
13205;DHT22;6667;52.634;9.226;2023-05-07T03:49:00;9.60;99.90
13205;DHT22;6667;52.634;9.226;2023-05-07T03:51:27;9.60;99.90
13205;DHT22;6667;52.634;9.226;2023-05-07T03:53:56;9.50;99.90
13205;DHT22;6667;52.634;9.226;2023-05-07T03:56:23;9.50;99.90
13205;DHT22;6667;52.634;9.226;2023-05-07T03:58:52;9.60;99.90
13205;DHT22;6667;52.634;9.226;2023-05-07T04:01:19;9.60;99.90
13205;DHT22;6667;52.634;9.226;2023-05-07T04:03:46;9.60;99.90
13205;DHT22;6667;52.634;9.226;2023-05-07T04:06:15;9.50;99.90
13205;DHT22;6667;52.634;9.226;2023-05-07T04:08:48;9.50;99.90
13205;DHT22;6667;52.634;9.226;2023-05-07T04:11:23;9.60;99.90
13205;DHT22;6667;52.634;9.226;2023-05-07T04:13:51;9.70;99.90
13205;DHT22;6667;52.634;9.226;2023-05-07T04:16:18;9.70;99.90
13205;DHT22;6667;52.634;9.226;2023-05-07T04:18:45;9.60;99.90
13205;DHT22;6667;52.634;9.226;2023-05-07T04:21:15;9.60;99.90
13205;DHT22;6667;52.634;9.226;2023-05-07T04:23:42;9.70;99.90
13205;DHT22;6667;52.634;9.226;2023-05-07T04:26:09;9.60;99.90
13205;DHT22;6667;52.634;9.226;2023-05-07T04:28:38;9.60;99.90
13205;DHT22;6667;52.634;9.226;2023-05-07T04:31:06;9.60;99.90
13205;DHT22;6667;52.634;9.226;2023-05-07T04:33:33;9.50;99.90
13205;DHT22;6667;52.634;9.226;2023-05-07T04:36:01;9.60;99.90
13205;DHT22;6667;52.634;9.226;2023-05-07T04:38:29;9.60;99.90
13205;DHT22;6667;52.634;9.226;2023-05-07T04:40:56;9.60;99.90
13205;DHT22;6667;52.634;9.226;2023-05-07T04:43:23;9.60;99.90
13205;DHT22;6667;52.634;9.226;2023-05-07T04:45:51;9.60;99.90
13205;DHT22;6667;52.634;9.226;2023-05-07T04:48:18;9.50;99.90
13205;DHT22;6667;52.634;9.226;2023-05-07T04:50:47;9.60;99.90
13205;DHT22;6667;52.634;9.226;2023-05-07T04:53:14;9.60;99.90
13205;DHT22;6667;52.634;9.226;2023-05-07T04:55:41;9.60;99.90
13205;DHT22;6667;52.634;9.226;2023-05-07T04:58:08;9.60;99.90
13205;DHT22;6667;52.634;9.226;2023-05-07T05:00:35;9.50;99.90
13205;DHT22;6667;52.634;9.226;2023-05-07T05:03:03;9.50;99.90
13205;DHT22;6667;52.634;9.226;2023-05-07T05:05:30;9.50;99.90
13205;DHT22;6667;52.634;9.226;2023-05-07T05:07:57;9.50;99.90
13205;DHT22;6667;52.634;9.226;2023-05-07T05:10:23;9.60;99.90
13205;DHT22;6667;52.634;9.226;2023-05-07T05:12:50;9.60;99.90
13205;DHT22;6667;52.634;9.226;2023-05-07T05:15:17;9.60;99.90
13205;DHT22;6667;52.634;9.226;2023-05-07T05:17:44;9.60;99.90
13205;DHT22;6667;52.634;9.226;2023-05-07T05:20:12;9.60;99.90
13205;DHT22;6667;52.634;9.226;2023-05-07T05:22:40;9.60;99.90
13205;DHT22;6667;52.634;9.226;2023-05-07T05:25:07;9.60;99.90
13205;DHT22;6667;52.634;9.226;2023-05-07T05:27:34;9.60;99.90
13205;DHT22;6667;52.634;9.226;2023-05-07T05:30:01;9.60;99.90
13205;DHT22;6667;52.634;9.226;2023-05-07T05:32:28;9.50;99.90
13205;DHT22;6667;52.634;9.226;2023-05-07T05:34:55;9.50;99.90
13205;DHT22;6667;52.634;9.226;2023-05-07T05:37:23;9.60;99.90
13205;DHT22;6667;52.634;9.226;2023-05-07T05:39:50;9.60;99.90
13205;DHT22;6667;52.634;9.226;2023-05-07T05:42:17;9.60;99.90
13205;DHT22;6667;52.634;9.226;2023-05-07T05:44:43;9.50;99.90
13205;DHT22;6667;52.634;9.226;2023-05-07T05:47:10;9.50;99.90
13205;DHT22;6667;52.634;9.226;2023-05-07T05:49:37;9.50;99.90
13205;DHT22;6667;52.634;9.226;2023-05-07T05:52:04;9.60;99.90
13205;DHT22;6667;52.634;9.226;2023-05-07T05:54:32;9.60;99.90
13205;DHT22;6667;52.634;9.226;2023-05-07T05:56:58;9.60;99.90
13205;DHT22;6667;52.634;9.226;2023-05-07T05:59:25;9.60;99.90
13205;DHT22;6667;52.634;9.226;2023-05-07T06:01:53;9.70;99.90
13205;DHT22;6667;52.634;9.226;2023-05-07T06:04:19;9.80;99.90
13205;DHT22;6667;52.634;9.226;2023-05-07T06:06:46;9.80;99.90
13205;DHT22;6667;52.634;9.226;2023-05-07T06:09:13;9.80;99.90
13205;DHT22;6667;52.634;9.226;2023-05-07T06:11:41;9.70;99.90
13205;DHT22;6667;52.634;9.226;2023-05-07T06:14:07;9.80;99.90
13205;DHT22;6667;52.634;9.226;2023-05-07T06:16:34;9.80;99.90
13205;DHT22;6667;52.634;9.226;2023-05-07T06:19:03;9.80;99.90
13205;DHT22;6667;52.634;9.226;2023-05-07T06:21:30;9.80;99.90
13205;DHT22;6667;52.634;9.226;2023-05-07T06:23:56;9.80;99.90
13205;DHT22;6667;52.634;9.226;2023-05-07T06:26:23;9.70;99.90
13205;DHT22;6667;52.634;9.226;2023-05-07T06:28:52;9.80;99.90
13205;DHT22;6667;52.634;9.226;2023-05-07T06:31:19;9.80;99.90
13205;DHT22;6667;52.634;9.226;2023-05-07T06:33:47;9.90;99.90
13205;DHT22;6667;52.634;9.226;2023-05-07T06:36:14;9.90;99.90
13205;DHT22;6667;52.634;9.226;2023-05-07T06:38:41;9.80;99.90
13205;DHT22;6667;52.634;9.226;2023-05-07T06:41:08;9.90;99.90
13205;DHT22;6667;52.634;9.226;2023-05-07T06:43:35;9.80;99.90
13205;DHT22;6667;52.634;9.226;2023-05-07T06:46:03;9.90;99.90
13205;DHT22;6667;52.634;9.226;2023-05-07T06:48:30;10.00;99.90
13205;DHT22;6667;52.634;9.226;2023-05-07T06:50:57;10.10;99.90
13205;DHT22;6667;52.634;9.226;2023-05-07T06:53:24;10.10;99.90
13205;DHT22;6667;52.634;9.226;2023-05-07T06:55:51;10.20;99.90
13205;DHT22;6667;52.634;9.226;2023-05-07T06:58:18;10.30;99.90
13205;DHT22;6667;52.634;9.226;2023-05-07T07:00:45;10.30;99.90
13205;DHT22;6667;52.634;9.226;2023-05-07T07:03:13;10.20;99.90
13205;DHT22;6667;52.634;9.226;2023-05-07T07:05:40;10.30;99.90
13205;DHT22;6667;52.634;9.226;2023-05-07T07:08:07;10.40;99.90
13205;DHT22;6667;52.634;9.226;2023-05-07T07:10:34;10.50;99.90
13205;DHT22;6667;52.634;9.226;2023-05-07T07:13:00;10.50;99.90
13205;DHT22;6667;52.634;9.226;2023-05-07T07:15:27;10.40;99.90
13205;DHT22;6667;52.634;9.226;2023-05-07T07:17:54;10.40;99.90
13205;DHT22;6667;52.634;9.226;2023-05-07T07:20:22;10.50;99.90
13205;DHT22;6667;52.634;9.226;2023-05-07T07:22:49;10.60;99.90
13205;DHT22;6667;52.634;9.226;2023-05-07T07:25:16;10.60;99.90
13205;DHT22;6667;52.634;9.226;2023-05-07T07:27:42;10.80;99.90
13205;DHT22;6667;52.634;9.226;2023-05-07T07:30:09;11.00;99.90
13205;DHT22;6667;52.634;9.226;2023-05-07T07:32:36;11.20;99.90
13205;DHT22;6667;52.634;9.226;2023-05-07T07:35:04;11.00;99.90
13205;DHT22;6667;52.634;9.226;2023-05-07T07:37:32;11.00;99.90
13205;DHT22;6667;52.634;9.226;2023-05-07T07:40:00;11.00;99.90
13205;DHT22;6667;52.634;9.226;2023-05-07T07:42:26;11.00;99.90
13205;DHT22;6667;52.634;9.226;2023-05-07T07:44:54;11.30;99.90
13205;DHT22;6667;52.634;9.226;2023-05-07T07:47:22;11.30;99.90
13205;DHT22;6667;52.634;9.226;2023-05-07T07:49:49;11.30;99.90
13205;DHT22;6667;52.634;9.226;2023-05-07T07:52:16;11.20;99.90
13205;DHT22;6667;52.634;9.226;2023-05-07T07:54:44;11.30;99.90
13205;DHT22;6667;52.634;9.226;2023-05-07T07:57:11;11.40;99.90
13205;DHT22;6667;52.634;9.226;2023-05-07T07:59:38;11.60;99.90
13205;DHT22;6667;52.634;9.226;2023-05-07T08:02:05;11.90;99.90
13205;DHT22;6667;52.634;9.226;2023-05-07T08:04:32;11.70;99.90
13205;DHT22;6667;52.634;9.226;2023-05-07T08:06:59;11.60;99.90
13205;DHT22;6667;52.634;9.226;2023-05-07T08:09:26;11.60;99.90
13205;DHT22;6667;52.634;9.226;2023-05-07T08:11:54;11.70;99.90
13205;DHT22;6667;52.634;9.226;2023-05-07T08:14:21;11.90;99.90
13205;DHT22;6667;52.634;9.226;2023-05-07T08:16:48;12.10;99.90
13205;DHT22;6667;52.634;9.226;2023-05-07T08:19:15;12.00;99.90
13205;DHT22;6667;52.634;9.226;2023-05-07T08:21:41;11.80;99.90
13205;DHT22;6667;52.634;9.226;2023-05-07T08:24:08;12.00;99.90
13205;DHT22;6667;52.634;9.226;2023-05-07T08:26:35;12.10;99.90
13205;DHT22;6667;52.634;9.226;2023-05-07T08:29:05;12.10;99.90
13205;DHT22;6667;52.634;9.226;2023-05-07T08:31:32;12.10;99.90
13205;DHT22;6667;52.634;9.226;2023-05-07T08:33:59;12.10;99.90
13205;DHT22;6667;52.634;9.226;2023-05-07T08:36:26;11.90;99.90
13205;DHT22;6667;52.634;9.226;2023-05-07T08:38:54;12.20;99.90
13205;DHT22;6667;52.634;9.226;2023-05-07T08:41:21;12.30;99.90
13205;DHT22;6667;52.634;9.226;2023-05-07T08:43:48;12.20;99.90
13205;DHT22;6667;52.634;9.226;2023-05-07T08:46:19;12.10;99.90
13205;DHT22;6667;52.634;9.226;2023-05-07T08:51:13;12.20;99.90
13205;DHT22;6667;52.634;9.226;2023-05-07T08:53:41;12.30;99.90
13205;DHT22;6667;52.634;9.226;2023-05-07T08:56:09;12.30;99.90
13205;DHT22;6667;52.634;9.226;2023-05-07T08:58:36;12.50;99.90
13205;DHT22;6667;52.634;9.226;2023-05-07T09:01:07;12.30;99.90
13205;DHT22;6667;52.634;9.226;2023-05-07T09:03:36;12.20;99.90
13205;DHT22;6667;52.634;9.226;2023-05-07T09:06:04;12.40;99.90
13205;DHT22;6667;52.634;9.226;2023-05-07T09:08:32;12.60;99.90
13205;DHT22;6667;52.634;9.226;2023-05-07T09:10:59;12.30;99.90
13205;DHT22;6667;52.634;9.226;2023-05-07T09:13:27;12.40;99.90
13205;DHT22;6667;52.634;9.226;2023-05-07T09:15:55;12.40;99.90
13205;DHT22;6667;52.634;9.226;2023-05-07T09:18:23;12.50;99.90
13205;DHT22;6667;52.634;9.226;2023-05-07T09:20:52;12.60;99.90
13205;DHT22;6667;52.634;9.226;2023-05-07T09:23:18;12.50;99.90
13205;DHT22;6667;52.634;9.226;2023-05-07T09:25:46;12.50;99.90
13205;DHT22;6667;52.634;9.226;2023-05-07T09:28:13;12.40;99.90
13205;DHT22;6667;52.634;9.226;2023-05-07T09:30:40;12.40;99.90
13205;DHT22;6667;52.634;9.226;2023-05-07T09:33:07;12.40;99.90
13205;DHT22;6667;52.634;9.226;2023-05-07T09:35:33;12.50;99.90
13205;DHT22;6667;52.634;9.226;2023-05-07T09:38:02;12.50;99.90
13205;DHT22;6667;52.634;9.226;2023-05-07T09:40:30;12.50;99.90
13205;DHT22;6667;52.634;9.226;2023-05-07T09:43:08;12.50;99.90
13205;DHT22;6667;52.634;9.226;2023-05-07T09:45:36;12.40;99.90
13205;DHT22;6667;52.634;9.226;2023-05-07T09:48:05;12.70;99.90
13205;DHT22;6667;52.634;9.226;2023-05-07T09:50:36;12.40;99.90
13205;DHT22;6667;52.634;9.226;2023-05-07T09:53:04;12.50;99.90
13205;DHT22;6667;52.634;9.226;2023-05-07T09:55:32;12.60;99.90
13205;DHT22;6667;52.634;9.226;2023-05-07T09:57:59;12.50;99.90
13205;DHT22;6667;52.634;9.226;2023-05-07T10:00:28;12.70;99.90
13205;DHT22;6667;52.634;9.226;2023-05-07T10:02:56;12.70;99.90
13205;DHT22;6667;52.634;9.226;2023-05-07T10:05:24;13.00;99.90
13205;DHT22;6667;52.634;9.226;2023-05-07T10:07:52;12.90;99.90
13205;DHT22;6667;52.634;9.226;2023-05-07T10:10:21;13.10;99.90
13205;DHT22;6667;52.634;9.226;2023-05-07T10:12:48;12.70;99.90
13205;DHT22;6667;52.634;9.226;2023-05-07T10:15:16;12.60;99.90
13205;DHT22;6667;52.634;9.226;2023-05-07T10:17:44;12.70;99.90
13205;DHT22;6667;52.634;9.226;2023-05-07T10:20:11;13.00;99.90
13205;DHT22;6667;52.634;9.226;2023-05-07T10:22:40;13.10;99.90
13205;DHT22;6667;52.634;9.226;2023-05-07T10:25:14;13.00;99.90
13205;DHT22;6667;52.634;9.226;2023-05-07T10:27:45;13.10;99.90
13205;DHT22;6667;52.634;9.226;2023-05-07T10:30:20;13.30;99.90
13205;DHT22;6667;52.634;9.226;2023-05-07T10:32:53;13.30;99.90
13205;DHT22;6667;52.634;9.226;2023-05-07T10:35:23;13.20;99.90
13205;DHT22;6667;52.634;9.226;2023-05-07T10:37:51;13.20;99.90
13205;DHT22;6667;52.634;9.226;2023-05-07T10:40:18;13.10;99.90
13205;DHT22;6667;52.634;9.226;2023-05-07T10:42:58;13.10;99.90
13205;DHT22;6667;52.634;9.226;2023-05-07T10:45:26;13.10;99.90
13205;DHT22;6667;52.634;9.226;2023-05-07T10:48:06;13.00;99.90
13205;DHT22;6667;52.634;9.226;2023-05-07T10:50:33;13.10;99.90
13205;DHT22;6667;52.634;9.226;2023-05-07T10:53:21;13.30;99.90
13205;DHT22;6667;52.634;9.226;2023-05-07T10:55:51;13.70;99.90
13205;DHT22;6667;52.634;9.226;2023-05-07T10:58:25;13.40;99.90
13205;DHT22;6667;52.634;9.226;2023-05-07T11:00:56;13.80;99.90
13205;DHT22;6667;52.634;9.226;2023-05-07T11:03:23;13.90;99.90
13205;DHT22;6667;52.634;9.226;2023-05-07T11:06:09;13.80;99.90
13205;DHT22;6667;52.634;9.226;2023-05-07T11:09:00;13.60;99.90
13205;DHT22;6667;52.634;9.226;2023-05-07T11:11:44;13.70;99.90
13205;DHT22;6667;52.634;9.226;2023-05-07T11:14:13;13.60;99.90
13205;DHT22;6667;52.634;9.226;2023-05-07T11:16:41;13.40;99.90
13205;DHT22;6667;52.634;9.226;2023-05-07T11:19:08;13.70;99.90
13205;DHT22;6667;52.634;9.226;2023-05-07T11:21:36;13.70;99.90
13205;DHT22;6667;52.634;9.226;2023-05-07T11:24:04;13.60;99.90
13205;DHT22;6667;52.634;9.226;2023-05-07T11:26:42;13.70;99.90
13205;DHT22;6667;52.634;9.226;2023-05-07T11:29:15;14.10;99.90
13205;DHT22;6667;52.634;9.226;2023-05-07T11:31:42;14.80;99.90
13205;DHT22;6667;52.634;9.226;2023-05-07T11:34:09;15.10;99.90
13205;DHT22;6667;52.634;9.226;2023-05-07T11:36:42;15.10;99.90
13205;DHT22;6667;52.634;9.226;2023-05-07T11:39:27;14.70;99.90
13205;DHT22;6667;52.634;9.226;2023-05-07T11:41:54;14.50;99.90
13205;DHT22;6667;52.634;9.226;2023-05-07T11:44:22;14.50;99.90
13205;DHT22;6667;52.634;9.226;2023-05-07T11:46:49;14.20;99.90
13205;DHT22;6667;52.634;9.226;2023-05-07T11:49:17;14.60;99.90
13205;DHT22;6667;52.634;9.226;2023-05-07T11:51:44;14.50;99.90
13205;DHT22;6667;52.634;9.226;2023-05-07T11:54:15;14.20;99.90
13205;DHT22;6667;52.634;9.226;2023-05-07T11:56:43;14.10;99.90
13205;DHT22;6667;52.634;9.226;2023-05-07T11:59:10;14.00;99.90
13205;DHT22;6667;52.634;9.226;2023-05-07T12:01:38;14.10;99.90
13205;DHT22;6667;52.634;9.226;2023-05-07T12:04:05;14.10;99.90
13205;DHT22;6667;52.634;9.226;2023-05-07T12:06:36;14.40;99.90
13205;DHT22;6667;52.634;9.226;2023-05-07T12:09:04;14.40;99.90
13205;DHT22;6667;52.634;9.226;2023-05-07T12:11:32;14.40;99.90
13205;DHT22;6667;52.634;9.226;2023-05-07T12:13:59;14.40;99.90
13205;DHT22;6667;52.634;9.226;2023-05-07T12:16:26;14.50;99.90
13205;DHT22;6667;52.634;9.226;2023-05-07T12:18:54;14.90;99.90
13205;DHT22;6667;52.634;9.226;2023-05-07T12:21:22;15.00;99.90
13205;DHT22;6667;52.634;9.226;2023-05-07T12:23:49;14.90;99.90
13205;DHT22;6667;52.634;9.226;2023-05-07T12:26:17;14.80;99.90
13205;DHT22;6667;52.634;9.226;2023-05-07T12:28:46;15.10;99.90
13205;DHT22;6667;52.634;9.226;2023-05-07T12:31:14;15.30;99.90
13205;DHT22;6667;52.634;9.226;2023-05-07T12:33:41;15.10;99.90
13205;DHT22;6667;52.634;9.226;2023-05-07T12:36:12;15.00;99.90
13205;DHT22;6667;52.634;9.226;2023-05-07T12:38:40;15.20;99.90
13205;DHT22;6667;52.634;9.226;2023-05-07T12:41:08;15.20;99.90
13205;DHT22;6667;52.634;9.226;2023-05-07T12:43:36;15.10;99.90
13205;DHT22;6667;52.634;9.226;2023-05-07T12:46:05;14.90;99.90
13205;DHT22;6667;52.634;9.226;2023-05-07T12:48:32;15.00;99.90
13205;DHT22;6667;52.634;9.226;2023-05-07T12:51:00;15.10;99.90
13205;DHT22;6667;52.634;9.226;2023-05-07T12:53:29;15.40;99.90
13205;DHT22;6667;52.634;9.226;2023-05-07T12:55:57;15.50;99.90
13205;DHT22;6667;52.634;9.226;2023-05-07T12:58:26;15.50;99.90
13205;DHT22;6667;52.634;9.226;2023-05-07T13:00:54;15.50;99.90
13205;DHT22;6667;52.634;9.226;2023-05-07T13:03:24;15.80;99.90
13205;DHT22;6667;52.634;9.226;2023-05-07T13:05:52;15.90;99.90
13205;DHT22;6667;52.634;9.226;2023-05-07T13:08:28;16.10;99.90
13205;DHT22;6667;52.634;9.226;2023-05-07T13:10:56;16.20;99.90
13205;DHT22;6667;52.634;9.226;2023-05-07T13:13:22;16.40;99.90
13205;DHT22;6667;52.634;9.226;2023-05-07T13:15:49;16.70;99.90
13205;DHT22;6667;52.634;9.226;2023-05-07T13:18:16;16.60;99.90
13205;DHT22;6667;52.634;9.226;2023-05-07T13:20:43;16.70;99.90
13205;DHT22;6667;52.634;9.226;2023-05-07T13:23:10;16.80;99.90
13205;DHT22;6667;52.634;9.226;2023-05-07T13:25:38;17.00;99.90
13205;DHT22;6667;52.634;9.226;2023-05-07T13:28:05;16.30;99.90
13205;DHT22;6667;52.634;9.226;2023-05-07T13:30:32;16.40;99.90
13205;DHT22;6667;52.634;9.226;2023-05-07T13:32:58;16.60;99.90
13205;DHT22;6667;52.634;9.226;2023-05-07T13:35:25;16.80;99.90
13205;DHT22;6667;52.634;9.226;2023-05-07T13:37:52;16.80;99.90
13205;DHT22;6667;52.634;9.226;2023-05-07T13:40:20;16.40;99.90
13205;DHT22;6667;52.634;9.226;2023-05-07T13:42:48;15.90;99.90
13205;DHT22;6667;52.634;9.226;2023-05-07T13:45:16;16.00;99.90
13205;DHT22;6667;52.634;9.226;2023-05-07T13:47:43;16.30;99.90
13205;DHT22;6667;52.634;9.226;2023-05-07T13:50:10;16.60;99.90
13205;DHT22;6667;52.634;9.226;2023-05-07T13:52:39;16.40;99.90
13205;DHT22;6667;52.634;9.226;2023-05-07T13:55:06;16.70;99.90
13205;DHT22;6667;52.634;9.226;2023-05-07T13:57:33;17.00;99.90
13205;DHT22;6667;52.634;9.226;2023-05-07T14:00:01;17.20;99.90
13205;DHT22;6667;52.634;9.226;2023-05-07T14:02:30;17.00;99.90
13205;DHT22;6667;52.634;9.226;2023-05-07T14:04:56;17.20;99.90
13205;DHT22;6667;52.634;9.226;2023-05-07T14:07:23;16.50;99.90
13205;DHT22;6667;52.634;9.226;2023-05-07T14:09:50;16.20;99.90
13205;DHT22;6667;52.634;9.226;2023-05-07T14:12:17;16.40;99.90
13205;DHT22;6667;52.634;9.226;2023-05-07T14:14:43;16.60;99.90
13205;DHT22;6667;52.634;9.226;2023-05-07T14:17:12;16.40;99.90
13205;DHT22;6667;52.634;9.226;2023-05-07T14:19:39;16.00;99.90
13205;DHT22;6667;52.634;9.226;2023-05-07T14:22:05;16.00;99.90
13205;DHT22;6667;52.634;9.226;2023-05-07T14:24:32;16.10;99.90
13205;DHT22;6667;52.634;9.226;2023-05-07T14:26:59;16.00;99.90
13205;DHT22;6667;52.634;9.226;2023-05-07T14:29:25;16.10;99.90
13205;DHT22;6667;52.634;9.226;2023-05-07T14:31:52;16.20;99.90
13205;DHT22;6667;52.634;9.226;2023-05-07T14:34:20;16.30;99.90
13205;DHT22;6667;52.634;9.226;2023-05-07T14:36:47;16.20;99.90
13205;DHT22;6667;52.634;9.226;2023-05-07T14:39:13;16.20;99.90
13205;DHT22;6667;52.634;9.226;2023-05-07T14:41:40;16.20;99.90
13205;DHT22;6667;52.634;9.226;2023-05-07T14:44:07;16.10;99.90
13205;DHT22;6667;52.634;9.226;2023-05-07T14:46:34;16.00;99.90
13205;DHT22;6667;52.634;9.226;2023-05-07T14:49:02;15.90;99.90
13205;DHT22;6667;52.634;9.226;2023-05-07T14:51:31;15.80;99.90
13205;DHT22;6667;52.634;9.226;2023-05-07T14:53:59;16.00;99.90
13205;DHT22;6667;52.634;9.226;2023-05-07T14:56:27;16.00;99.90
13205;DHT22;6667;52.634;9.226;2023-05-07T15:02:28;15.90;99.90
13205;DHT22;6667;52.634;9.226;2023-05-07T15:04:55;15.70;99.90
13205;DHT22;6667;52.634;9.226;2023-05-07T15:10:23;15.50;99.90
13205;DHT22;6667;52.634;9.226;2023-05-07T15:12:50;15.70;99.90
13205;DHT22;6667;52.634;9.226;2023-05-07T15:15:26;15.70;99.90
13205;DHT22;6667;52.634;9.226;2023-05-07T15:17:53;15.50;99.90
13205;DHT22;6667;52.634;9.226;2023-05-07T15:20:21;15.40;99.90
13205;DHT22;6667;52.634;9.226;2023-05-07T15:22:52;15.40;99.90
13205;DHT22;6667;52.634;9.226;2023-05-07T15:25:19;15.50;99.90
13205;DHT22;6667;52.634;9.226;2023-05-07T15:27:49;15.40;99.90
13205;DHT22;6667;52.634;9.226;2023-05-07T15:30:17;15.10;99.90
13205;DHT22;6667;52.634;9.226;2023-05-07T15:32:46;14.90;99.90
13205;DHT22;6667;52.634;9.226;2023-05-07T15:35:13;15.10;99.90
13205;DHT22;6667;52.634;9.226;2023-05-07T15:37:40;15.00;99.90
13205;DHT22;6667;52.634;9.226;2023-05-07T15:40:09;15.10;99.90
13205;DHT22;6667;52.634;9.226;2023-05-07T15:42:36;15.30;99.90
13205;DHT22;6667;52.634;9.226;2023-05-07T15:45:23;15.40;99.90
13205;DHT22;6667;52.634;9.226;2023-05-07T15:47:50;15.60;99.90
13205;DHT22;6667;52.634;9.226;2023-05-07T15:50:17;15.40;99.90
13205;DHT22;6667;52.634;9.226;2023-05-07T15:52:44;15.20;99.90
13205;DHT22;6667;52.634;9.226;2023-05-07T15:55:13;15.20;99.90
13205;DHT22;6667;52.634;9.226;2023-05-07T15:57:41;15.30;99.90
13205;DHT22;6667;52.634;9.226;2023-05-07T16:00:10;15.30;99.90
13205;DHT22;6667;52.634;9.226;2023-05-07T16:02:38;15.00;99.90
13205;DHT22;6667;52.634;9.226;2023-05-07T16:05:06;15.10;99.90
13205;DHT22;6667;52.634;9.226;2023-05-07T16:07:35;14.90;99.90
13205;DHT22;6667;52.634;9.226;2023-05-07T16:10:05;15.00;99.90
13205;DHT22;6667;52.634;9.226;2023-05-07T16:16:28;14.90;99.90
13205;DHT22;6667;52.634;9.226;2023-05-07T16:19:00;14.70;99.90
13205;DHT22;6667;52.634;9.226;2023-05-07T16:24:36;14.80;99.90
13205;DHT22;6667;52.634;9.226;2023-05-07T16:27:03;14.90;99.90
13205;DHT22;6667;52.634;9.226;2023-05-07T16:29:31;14.80;99.90
13205;DHT22;6667;52.634;9.226;2023-05-07T16:31:59;14.90;99.90